sensor_id;sensor_type;location;lat;lon;timestamp;P1;durP1;ratioP1;P2;durP2;ratioP2
47784;SDS011;35233;55.686;37.848;2023-05-10T00:00:11;18.35;;;11.15;;
47784;SDS011;35233;55.686;37.848;2023-05-10T00:02:37;16.70;;;10.65;;
47784;SDS011;35233;55.686;37.848;2023-05-10T00:05:03;19.95;;;11.38;;
47784;SDS011;35233;55.686;37.848;2023-05-10T00:07:30;19.33;;;11.77;;
47784;SDS011;35233;55.686;37.848;2023-05-10T00:09:55;19.13;;;12.15;;
47784;SDS011;35233;55.686;37.848;2023-05-10T00:12:21;17.85;;;12.45;;
47784;SDS011;35233;55.686;37.848;2023-05-10T00:14:46;19.85;;;13.10;;
47784;SDS011;35233;55.686;37.848;2023-05-10T00:17:12;19.65;;;13.32;;
47784;SDS011;35233;55.686;37.848;2023-05-10T00:19:37;21.67;;;13.35;;
47784;SDS011;35233;55.686;37.848;2023-05-10T00:22:03;20.67;;;13.57;;
47784;SDS011;35233;55.686;37.848;2023-05-10T00:24:28;21.85;;;13.15;;
47784;SDS011;35233;55.686;37.848;2023-05-10T00:26:54;20.55;;;13.52;;
47784;SDS011;35233;55.686;37.848;2023-05-10T00:29:19;19.58;;;13.20;;
47784;SDS011;35233;55.686;37.848;2023-05-10T00:31:45;21.58;;;13.48;;
47784;SDS011;35233;55.686;37.848;2023-05-10T00:34:10;21.83;;;13.48;;
47784;SDS011;35233;55.686;37.848;2023-05-10T00:36:36;19.88;;;13.10;;
47784;SDS011;35233;55.686;37.848;2023-05-10T00:39:01;23.13;;;13.27;;
47784;SDS011;35233;55.686;37.848;2023-05-10T00:41:28;21.40;;;13.10;;
47784;SDS011;35233;55.686;37.848;2023-05-10T00:43:57;21.67;;;13.65;;
47784;SDS011;35233;55.686;37.848;2023-05-10T00:46:22;19.60;;;13.07;;
47784;SDS011;35233;55.686;37.848;2023-05-10T00:48:48;22.85;;;13.57;;
47784;SDS011;35233;55.686;37.848;2023-05-10T00:51:15;19.38;;;13.32;;
47784;SDS011;35233;55.686;37.848;2023-05-10T00:53:40;18.98;;;12.88;;
47784;SDS011;35233;55.686;37.848;2023-05-10T00:56:06;22.52;;;13.48;;
47784;SDS011;35233;55.686;37.848;2023-05-10T00:58:32;22.60;;;12.82;;
47784;SDS011;35233;55.686;37.848;2023-05-10T01:00:58;20.77;;;13.25;;
47784;SDS011;35233;55.686;37.848;2023-05-10T01:03:24;22.95;;;13.77;;
47784;SDS011;35233;55.686;37.848;2023-05-10T01:05:50;22.20;;;13.77;;
47784;SDS011;35233;55.686;37.848;2023-05-10T01:08:15;21.70;;;13.80;;
47784;SDS011;35233;55.686;37.848;2023-05-10T01:10:41;20.95;;;13.40;;
47784;SDS011;35233;55.686;37.848;2023-05-10T01:13:08;23.02;;;13.77;;
47784;SDS011;35233;55.686;37.848;2023-05-10T01:15:34;20.23;;;13.18;;
47784;SDS011;35233;55.686;37.848;2023-05-10T01:18:01;23.33;;;13.57;;
47784;SDS011;35233;55.686;37.848;2023-05-10T01:20:29;22.25;;;14.10;;
47784;SDS011;35233;55.686;37.848;2023-05-10T01:34:41;17.70;;;12.88;;
47784;SDS011;35233;55.686;37.848;2023-05-10T01:37:42;21.70;;;13.73;;
47784;SDS011;35233;55.686;37.848;2023-05-10T01:42:51;19.30;;;13.15;;
47784;SDS011;35233;55.686;37.848;2023-05-10T01:45:28;20.85;;;13.90;;
47784;SDS011;35233;55.686;37.848;2023-05-10T01:48:11;20.48;;;13.77;;
47784;SDS011;35233;55.686;37.848;2023-05-10T01:50:39;18.95;;;12.60;;
47784;SDS011;35233;55.686;37.848;2023-05-10T01:53:09;20.25;;;12.98;;
47784;SDS011;35233;55.686;37.848;2023-05-10T01:55:49;20.30;;;12.48;;
47784;SDS011;35233;55.686;37.848;2023-05-10T01:58:21;20.08;;;12.73;;
47784;SDS011;35233;55.686;37.848;2023-05-10T02:00:50;19.13;;;12.38;;
47784;SDS011;35233;55.686;37.848;2023-05-10T02:03:17;17.98;;;13.13;;
47784;SDS011;35233;55.686;37.848;2023-05-10T02:05:46;18.67;;;12.48;;
47784;SDS011;35233;55.686;37.848;2023-05-10T02:08:13;18.63;;;12.60;;
47784;SDS011;35233;55.686;37.848;2023-05-10T02:10:41;19.38;;;11.93;;
47784;SDS011;35233;55.686;37.848;2023-05-10T02:13:08;19.33;;;12.95;;
47784;SDS011;35233;55.686;37.848;2023-05-10T02:15:36;20.20;;;12.65;;
47784;SDS011;35233;55.686;37.848;2023-05-10T02:18:04;15.90;;;11.70;;
47784;SDS011;35233;55.686;37.848;2023-05-10T02:20:31;17.95;;;12.43;;
47784;SDS011;35233;55.686;37.848;2023-05-10T02:22:58;20.92;;;12.77;;
47784;SDS011;35233;55.686;37.848;2023-05-10T02:25:25;21.33;;;13.23;;
47784;SDS011;35233;55.686;37.848;2023-05-10T02:27:53;21.40;;;13.43;;
47784;SDS011;35233;55.686;37.848;2023-05-10T02:30:21;18.92;;;12.13;;
47784;SDS011;35233;55.686;37.848;2023-05-10T02:32:49;19.67;;;12.50;;
47784;SDS011;35233;55.686;37.848;2023-05-10T02:35:16;17.80;;;12.10;;
47784;SDS011;35233;55.686;37.848;2023-05-10T02:37:42;19.65;;;12.00;;
47784;SDS011;35233;55.686;37.848;2023-05-10T02:40:10;17.27;;;11.23;;
47784;SDS011;35233;55.686;37.848;2023-05-10T02:42:37;18.10;;;11.98;;
47784;SDS011;35233;55.686;37.848;2023-05-10T02:45:07;18.13;;;11.73;;
47784;SDS011;35233;55.686;37.848;2023-05-10T02:47:37;20.33;;;12.20;;
47784;SDS011;35233;55.686;37.848;2023-05-10T02:50:03;16.95;;;12.05;;
47784;SDS011;35233;55.686;37.848;2023-05-10T02:52:30;18.33;;;12.10;;
47784;SDS011;35233;55.686;37.848;2023-05-10T02:55:19;18.65;;;11.38;;
47784;SDS011;35233;55.686;37.848;2023-05-10T02:57:51;14.77;;;10.60;;
47784;SDS011;35233;55.686;37.848;2023-05-10T03:00:20;21.67;;;11.85;;
47784;SDS011;35233;55.686;37.848;2023-05-10T03:02:46;16.92;;;11.13;;
47784;SDS011;35233;55.686;37.848;2023-05-10T03:05:12;15.65;;;11.32;;
47784;SDS011;35233;55.686;37.848;2023-05-10T03:07:37;16.45;;;11.02;;
47784;SDS011;35233;55.686;37.848;2023-05-10T03:10:03;20.80;;;11.38;;
47784;SDS011;35233;55.686;37.848;2023-05-10T03:15:37;15.35;;;11.40;;
47784;SDS011;35233;55.686;37.848;2023-05-10T03:18:12;16.70;;;10.52;;
47784;SDS011;35233;55.686;37.848;2023-05-10T03:20:46;16.90;;;10.02;;
47784;SDS011;35233;55.686;37.848;2023-05-10T03:23:17;18.67;;;10.93;;
47784;SDS011;35233;55.686;37.848;2023-05-10T03:25:48;18.55;;;11.52;;
47784;SDS011;35233;55.686;37.848;2023-05-10T03:28:15;15.63;;;10.27;;
47784;SDS011;35233;55.686;37.848;2023-05-10T03:30:42;15.65;;;10.10;;
47784;SDS011;35233;55.686;37.848;2023-05-10T03:33:10;16.20;;;10.50;;
47784;SDS011;35233;55.686;37.848;2023-05-10T03:35:35;16.08;;;9.45;;
47784;SDS011;35233;55.686;37.848;2023-05-10T03:38:01;17.92;;;9.82;;
47784;SDS011;35233;55.686;37.848;2023-05-10T03:40:27;15.38;;;10.00;;
47784;SDS011;35233;55.686;37.848;2023-05-10T03:42:57;14.88;;;9.13;;
47784;SDS011;35233;55.686;37.848;2023-05-10T03:45:41;14.60;;;9.82;;
47784;SDS011;35233;55.686;37.848;2023-05-10T03:48:07;17.10;;;10.10;;
47784;SDS011;35233;55.686;37.848;2023-05-10T03:50:32;14.55;;;8.95;;
47784;SDS011;35233;55.686;37.848;2023-05-10T03:52:58;14.48;;;9.15;;
47784;SDS011;35233;55.686;37.848;2023-05-10T03:55:23;13.55;;;9.13;;
47784;SDS011;35233;55.686;37.848;2023-05-10T03:57:49;14.95;;;8.52;;
47784;SDS011;35233;55.686;37.848;2023-05-10T04:00:14;14.73;;;9.23;;
47784;SDS011;35233;55.686;37.848;2023-05-10T04:02:40;14.02;;;8.38;;
47784;SDS011;35233;55.686;37.848;2023-05-10T04:05:06;16.23;;;8.73;;
47784;SDS011;35233;55.686;37.848;2023-05-10T04:07:31;10.10;;;8.20;;
47784;SDS011;35233;55.686;37.848;2023-05-10T04:09:57;12.13;;;7.95;;
47784;SDS011;35233;55.686;37.848;2023-05-10T04:12:22;12.45;;;8.13;;
47784;SDS011;35233;55.686;37.848;2023-05-10T04:14:48;12.43;;;7.45;;
47784;SDS011;35233;55.686;37.848;2023-05-10T04:17:13;11.32;;;7.07;;
47784;SDS011;35233;55.686;37.848;2023-05-10T04:19:39;14.00;;;8.15;;
47784;SDS011;35233;55.686;37.848;2023-05-10T04:22:04;11.65;;;7.03;;
47784;SDS011;35233;55.686;37.848;2023-05-10T04:24:30;10.25;;;6.97;;
47784;SDS011;35233;55.686;37.848;2023-05-10T04:26:56;12.07;;;6.93;;
47784;SDS011;35233;55.686;37.848;2023-05-10T04:29:21;13.82;;;6.88;;
47784;SDS011;35233;55.686;37.848;2023-05-10T04:31:46;9.32;;;6.85;;
47784;SDS011;35233;55.686;37.848;2023-05-10T04:34:13;10.55;;;6.90;;
47784;SDS011;35233;55.686;37.848;2023-05-10T04:36:39;12.23;;;6.80;;
47784;SDS011;35233;55.686;37.848;2023-05-10T04:39:05;11.13;;;6.32;;
47784;SDS011;35233;55.686;37.848;2023-05-10T04:41:30;9.48;;;6.47;;
47784;SDS011;35233;55.686;37.848;2023-05-10T04:43:56;9.23;;;6.00;;
47784;SDS011;35233;55.686;37.848;2023-05-10T04:46:22;9.23;;;6.32;;
47784;SDS011;35233;55.686;37.848;2023-05-10T04:48:47;10.77;;;7.00;;
47784;SDS011;35233;55.686;37.848;2023-05-10T04:51:13;10.10;;;6.30;;
47784;SDS011;35233;55.686;37.848;2023-05-10T04:53:38;8.77;;;6.68;;
47784;SDS011;35233;55.686;37.848;2023-05-10T04:56:04;9.80;;;6.88;;
47784;SDS011;35233;55.686;37.848;2023-05-10T04:58:30;8.13;;;5.90;;
47784;SDS011;35233;55.686;37.848;2023-05-10T05:00:56;11.32;;;6.57;;
47784;SDS011;35233;55.686;37.848;2023-05-10T05:03:21;9.38;;;6.65;;
47784;SDS011;35233;55.686;37.848;2023-05-10T05:05:47;9.75;;;6.53;;
47784;SDS011;35233;55.686;37.848;2023-05-10T05:08:12;10.45;;;6.43;;
47784;SDS011;35233;55.686;37.848;2023-05-10T05:10:38;11.40;;;6.53;;
47784;SDS011;35233;55.686;37.848;2023-05-10T05:13:04;8.77;;;6.60;;
47784;SDS011;35233;55.686;37.848;2023-05-10T05:15:29;10.52;;;6.65;;
47784;SDS011;35233;55.686;37.848;2023-05-10T05:17:55;9.73;;;6.43;;
47784;SDS011;35233;55.686;37.848;2023-05-10T05:20:21;8.75;;;6.60;;
47784;SDS011;35233;55.686;37.848;2023-05-10T05:22:46;10.52;;;6.47;;
47784;SDS011;35233;55.686;37.848;2023-05-10T05:25:12;8.55;;;5.90;;
47784;SDS011;35233;55.686;37.848;2023-05-10T05:27:37;10.93;;;6.50;;
47784;SDS011;35233;55.686;37.848;2023-05-10T05:30:03;9.35;;;5.90;;
47784;SDS011;35233;55.686;37.848;2023-05-10T05:32:29;13.98;;;6.88;;
47784;SDS011;35233;55.686;37.848;2023-05-10T05:34:55;12.25;;;7.55;;
47784;SDS011;35233;55.686;37.848;2023-05-10T05:37:21;11.98;;;7.82;;
47784;SDS011;35233;55.686;37.848;2023-05-10T05:39:47;10.73;;;7.35;;
47784;SDS011;35233;55.686;37.848;2023-05-10T05:42:13;11.70;;;7.72;;
47784;SDS011;35233;55.686;37.848;2023-05-10T05:44:39;11.55;;;7.65;;
47784;SDS011;35233;55.686;37.848;2023-05-10T05:47:05;11.57;;;8.02;;
47784;SDS011;35233;55.686;37.848;2023-05-10T05:49:31;10.35;;;7.63;;
47784;SDS011;35233;55.686;37.848;2023-05-10T05:52:00;11.15;;;7.78;;
47784;SDS011;35233;55.686;37.848;2023-05-10T05:54:26;12.18;;;8.15;;
47784;SDS011;35233;55.686;37.848;2023-05-10T05:56:55;11.20;;;7.95;;
47784;SDS011;35233;55.686;37.848;2023-05-10T05:59:21;12.75;;;8.13;;
47784;SDS011;35233;55.686;37.848;2023-05-10T06:01:47;10.93;;;7.78;;
47784;SDS011;35233;55.686;37.848;2023-05-10T06:04:13;11.20;;;7.57;;
47784;SDS011;35233;55.686;37.848;2023-05-10T06:06:39;10.57;;;8.10;;
47784;SDS011;35233;55.686;37.848;2023-05-10T06:09:04;11.98;;;7.70;;
47784;SDS011;35233;55.686;37.848;2023-05-10T06:11:30;10.88;;;7.80;;
47784;SDS011;35233;55.686;37.848;2023-05-10T06:13:57;11.02;;;7.60;;
47784;SDS011;35233;55.686;37.848;2023-05-10T06:16:23;9.63;;;6.97;;
47784;SDS011;35233;55.686;37.848;2023-05-10T06:18:49;9.68;;;7.25;;
47784;SDS011;35233;55.686;37.848;2023-05-10T06:21:14;10.88;;;7.22;;
47784;SDS011;35233;55.686;37.848;2023-05-10T06:23:41;11.20;;;7.25;;
47784;SDS011;35233;55.686;37.848;2023-05-10T06:26:06;8.88;;;6.47;;
47784;SDS011;35233;55.686;37.848;2023-05-10T06:28:32;11.27;;;6.72;;
47784;SDS011;35233;55.686;37.848;2023-05-10T06:30:58;9.80;;;7.05;;
47784;SDS011;35233;55.686;37.848;2023-05-10T06:33:24;9.02;;;6.65;;
47784;SDS011;35233;55.686;37.848;2023-05-10T06:35:50;8.63;;;6.50;;
47784;SDS011;35233;55.686;37.848;2023-05-10T06:38:15;10.98;;;6.82;;
47784;SDS011;35233;55.686;37.848;2023-05-10T06:40:41;10.07;;;6.75;;
47784;SDS011;35233;55.686;37.848;2023-05-10T06:43:07;10.00;;;6.85;;
47784;SDS011;35233;55.686;37.848;2023-05-10T06:45:33;8.88;;;6.60;;
47784;SDS011;35233;55.686;37.848;2023-05-10T06:47:59;8.88;;;6.35;;
47784;SDS011;35233;55.686;37.848;2023-05-10T06:50:24;7.82;;;5.90;;
47784;SDS011;35233;55.686;37.848;2023-05-10T06:52:50;10.10;;;6.35;;
47784;SDS011;35233;55.686;37.848;2023-05-10T06:55:15;7.90;;;5.80;;
47784;SDS011;35233;55.686;37.848;2023-05-10T06:57:41;8.20;;;6.28;;
47784;SDS011;35233;55.686;37.848;2023-05-10T07:00:07;8.77;;;6.30;;
47784;SDS011;35233;55.686;37.848;2023-05-10T07:02:34;8.88;;;5.85;;
47784;SDS011;35233;55.686;37.848;2023-05-10T07:05:00;8.88;;;5.25;;
47784;SDS011;35233;55.686;37.848;2023-05-10T07:07:26;8.20;;;5.50;;
47784;SDS011;35233;55.686;37.848;2023-05-10T07:09:51;9.52;;;5.38;;
47784;SDS011;35233;55.686;37.848;2023-05-10T07:12:17;7.97;;;5.80;;
47784;SDS011;35233;55.686;37.848;2023-05-10T07:14:42;7.53;;;5.60;;
47784;SDS011;35233;55.686;37.848;2023-05-10T07:17:08;8.77;;;5.40;;
47784;SDS011;35233;55.686;37.848;2023-05-10T07:19:34;6.47;;;4.82;;
47784;SDS011;35233;55.686;37.848;2023-05-10T07:21:59;8.10;;;5.68;;
47784;SDS011;35233;55.686;37.848;2023-05-10T07:24:25;6.82;;;4.70;;
47784;SDS011;35233;55.686;37.848;2023-05-10T07:26:50;7.05;;;4.78;;
47784;SDS011;35233;55.686;37.848;2023-05-10T07:29:16;7.50;;;4.80;;
47784;SDS011;35233;55.686;37.848;2023-05-10T07:31:41;5.80;;;4.15;;
47784;SDS011;35233;55.686;37.848;2023-05-10T07:34:08;8.07;;;4.63;;
47784;SDS011;35233;55.686;37.848;2023-05-10T07:36:34;7.70;;;4.22;;
47784;SDS011;35233;55.686;37.848;2023-05-10T07:39:00;8.45;;;5.03;;
47784;SDS011;35233;55.686;37.848;2023-05-10T07:41:25;6.15;;;4.53;;
47784;SDS011;35233;55.686;37.848;2023-05-10T07:43:51;6.70;;;4.20;;
47784;SDS011;35233;55.686;37.848;2023-05-10T07:46:17;7.75;;;5.13;;
47784;SDS011;35233;55.686;37.848;2023-05-10T07:48:44;6.70;;;4.60;;
47784;SDS011;35233;55.686;37.848;2023-05-10T07:51:09;7.03;;;4.70;;
47784;SDS011;35233;55.686;37.848;2023-05-10T07:53:35;5.45;;;4.32;;
47784;SDS011;35233;55.686;37.848;2023-05-10T07:56:19;5.18;;;4.03;;
47784;SDS011;35233;55.686;37.848;2023-05-10T07:58:48;5.93;;;4.05;;
47784;SDS011;35233;55.686;37.848;2023-05-10T08:01:13;6.00;;;4.03;;
47784;SDS011;35233;55.686;37.848;2023-05-10T08:03:39;5.88;;;3.85;;
47784;SDS011;35233;55.686;37.848;2023-05-10T08:06:05;5.40;;;3.72;;
47784;SDS011;35233;55.686;37.848;2023-05-10T08:08:31;6.10;;;4.20;;
47784;SDS011;35233;55.686;37.848;2023-05-10T08:10:56;5.40;;;3.65;;
47784;SDS011;35233;55.686;37.848;2023-05-10T08:13:21;5.30;;;3.72;;
47784;SDS011;35233;55.686;37.848;2023-05-10T08:15:47;4.75;;;3.33;;
47784;SDS011;35233;55.686;37.848;2023-05-10T08:18:13;6.32;;;4.07;;
47784;SDS011;35233;55.686;37.848;2023-05-10T08:20:38;4.53;;;3.30;;
47784;SDS011;35233;55.686;37.848;2023-05-10T08:23:04;6.25;;;3.53;;
47784;SDS011;35233;55.686;37.848;2023-05-10T08:25:29;5.20;;;3.53;;
47784;SDS011;35233;55.686;37.848;2023-05-10T08:27:56;5.20;;;3.83;;
47784;SDS011;35233;55.686;37.848;2023-05-10T08:30:21;5.68;;;3.88;;
47784;SDS011;35233;55.686;37.848;2023-05-10T08:32:47;5.45;;;3.67;;
47784;SDS011;35233;55.686;37.848;2023-05-10T08:35:12;5.28;;;3.50;;
47784;SDS011;35233;55.686;37.848;2023-05-10T08:37:38;4.90;;;3.33;;
47784;SDS011;35233;55.686;37.848;2023-05-10T08:40:03;4.20;;;3.30;;
47784;SDS011;35233;55.686;37.848;2023-05-10T08:42:30;4.10;;;3.10;;
47784;SDS011;35233;55.686;37.848;2023-05-10T08:44:59;5.97;;;3.38;;
47784;SDS011;35233;55.686;37.848;2023-05-10T08:47:26;4.60;;;3.10;;
47784;SDS011;35233;55.686;37.848;2023-05-10T08:49:52;4.40;;;3.65;;
47784;SDS011;35233;55.686;37.848;2023-05-10T08:52:19;4.38;;;3.20;;
47784;SDS011;35233;55.686;37.848;2023-05-10T08:54:47;5.55;;;3.38;;
47784;SDS011;35233;55.686;37.848;2023-05-10T08:57:13;4.97;;;3.33;;
47784;SDS011;35233;55.686;37.848;2023-05-10T08:59:38;4.72;;;3.30;;
47784;SDS011;35233;55.686;37.848;2023-05-10T09:02:05;4.90;;;3.30;;
47784;SDS011;35233;55.686;37.848;2023-05-10T09:04:31;5.32;;;3.58;;
47784;SDS011;35233;55.686;37.848;2023-05-10T09:06:56;4.95;;;3.22;;
47784;SDS011;35233;55.686;37.848;2023-05-10T09:09:23;4.95;;;3.33;;
47784;SDS011;35233;55.686;37.848;2023-05-10T09:11:50;4.72;;;3.15;;
47784;SDS011;35233;55.686;37.848;2023-05-10T09:14:17;4.95;;;3.30;;
47784;SDS011;35233;55.686;37.848;2023-05-10T09:16:44;4.53;;;3.30;;
47784;SDS011;35233;55.686;37.848;2023-05-10T09:19:10;5.30;;;3.63;;
47784;SDS011;35233;55.686;37.848;2023-05-10T09:21:35;5.35;;;3.65;;
47784;SDS011;35233;55.686;37.848;2023-05-10T09:24:04;4.82;;;3.55;;
47784;SDS011;35233;55.686;37.848;2023-05-10T09:26:30;4.43;;;3.28;;
47784;SDS011;35233;55.686;37.848;2023-05-10T09:28:57;4.13;;;3.22;;
47784;SDS011;35233;55.686;37.848;2023-05-10T09:31:24;5.03;;;3.47;;
47784;SDS011;35233;55.686;37.848;2023-05-10T09:33:50;4.10;;;3.25;;
47784;SDS011;35233;55.686;37.848;2023-05-10T09:36:17;5.22;;;3.45;;
47784;SDS011;35233;55.686;37.848;2023-05-10T09:38:50;4.78;;;3.50;;
47784;SDS011;35233;55.686;37.848;2023-05-10T09:41:20;4.75;;;3.40;;
47784;SDS011;35233;55.686;37.848;2023-05-10T09:43:47;4.68;;;3.08;;
47784;SDS011;35233;55.686;37.848;2023-05-10T09:46:14;5.15;;;3.47;;
47784;SDS011;35233;55.686;37.848;2023-05-10T09:48:41;5.15;;;3.30;;
47784;SDS011;35233;55.686;37.848;2023-05-10T09:51:08;4.95;;;3.58;;
47784;SDS011;35233;55.686;37.848;2023-05-10T09:53:33;4.65;;;3.47;;
47784;SDS011;35233;55.686;37.848;2023-05-10T09:55:59;4.90;;;3.40;;
47784;SDS011;35233;55.686;37.848;2023-05-10T09:58:24;4.40;;;3.38;;
47784;SDS011;35233;55.686;37.848;2023-05-10T10:00:50;4.30;;;3.25;;
47784;SDS011;35233;55.686;37.848;2023-05-10T10:03:18;5.45;;;3.60;;
47784;SDS011;35233;55.686;37.848;2023-05-10T10:05:45;4.32;;;3.47;;
47784;SDS011;35233;55.686;37.848;2023-05-10T10:08:12;5.07;;;3.33;;
47784;SDS011;35233;55.686;37.848;2023-05-10T10:10:38;4.68;;;3.45;;
47784;SDS011;35233;55.686;37.848;2023-05-10T10:13:10;4.18;;;3.30;;
47784;SDS011;35233;55.686;37.848;2023-05-10T10:15:35;4.80;;;3.40;;
47784;SDS011;35233;55.686;37.848;2023-05-10T10:18:01;4.63;;;3.22;;
47784;SDS011;35233;55.686;37.848;2023-05-10T10:20:28;4.57;;;3.30;;
47784;SDS011;35233;55.686;37.848;2023-05-10T10:22:54;4.97;;;3.22;;
47784;SDS011;35233;55.686;37.848;2023-05-10T10:25:21;4.32;;;3.20;;
47784;SDS011;35233;55.686;37.848;2023-05-10T10:35:59;4.43;;;2.90;;
47784;SDS011;35233;55.686;37.848;2023-05-10T10:38:25;4.47;;;3.00;;
47784;SDS011;35233;55.686;37.848;2023-05-10T10:41:10;4.30;;;2.90;;
47784;SDS011;35233;55.686;37.848;2023-05-10T10:44:22;3.95;;;2.97;;
47784;SDS011;35233;55.686;37.848;2023-05-10T10:49:24;4.50;;;3.20;;
47784;SDS011;35233;55.686;37.848;2023-05-10T10:54:51;3.78;;;2.72;;
47784;SDS011;35233;55.686;37.848;2023-05-10T10:57:22;4.60;;;3.15;;
47784;SDS011;35233;55.686;37.848;2023-05-10T10:59:47;4.05;;;3.22;;
47784;SDS011;35233;55.686;37.848;2023-05-10T11:02:32;4.20;;;3.03;;
47784;SDS011;35233;55.686;37.848;2023-05-10T11:05:00;4.05;;;2.97;;
47784;SDS011;35233;55.686;37.848;2023-05-10T11:07:59;4.50;;;3.15;;
47784;SDS011;35233;55.686;37.848;2023-05-10T11:10:25;4.35;;;2.85;;
47784;SDS011;35233;55.686;37.848;2023-05-10T11:13:01;4.00;;;3.00;;
47784;SDS011;35233;55.686;37.848;2023-05-10T11:15:30;3.17;;;2.53;;
47784;SDS011;35233;55.686;37.848;2023-05-10T11:17:57;3.80;;;3.13;;
47784;SDS011;35233;55.686;37.848;2023-05-10T11:20:23;4.00;;;2.92;;
47784;SDS011;35233;55.686;37.848;2023-05-10T11:25:26;4.72;;;2.95;;
47784;SDS011;35233;55.686;37.848;2023-05-10T11:27:53;3.75;;;2.78;;
47784;SDS011;35233;55.686;37.848;2023-05-10T11:30:18;3.53;;;2.75;;
47784;SDS011;35233;55.686;37.848;2023-05-10T11:32:45;3.45;;;2.72;;
47784;SDS011;35233;55.686;37.848;2023-05-10T11:35:11;4.53;;;2.92;;
47784;SDS011;35233;55.686;37.848;2023-05-10T11:37:38;4.00;;;2.78;;
47784;SDS011;35233;55.686;37.848;2023-05-10T11:40:08;4.22;;;3.10;;
47784;SDS011;35233;55.686;37.848;2023-05-10T11:42:37;3.90;;;2.92;;
47784;SDS011;35233;55.686;37.848;2023-05-10T11:45:03;3.90;;;2.90;;
47784;SDS011;35233;55.686;37.848;2023-05-10T11:47:30;3.72;;;2.75;;
47784;SDS011;35233;55.686;37.848;2023-05-10T11:49:55;3.97;;;2.80;;
47784;SDS011;35233;55.686;37.848;2023-05-10T11:52:22;3.85;;;3.00;;
47784;SDS011;35233;55.686;37.848;2023-05-10T11:54:52;3.92;;;2.78;;
47784;SDS011;35233;55.686;37.848;2023-05-10T11:57:20;3.10;;;2.55;;
47784;SDS011;35233;55.686;37.848;2023-05-10T11:59:53;3.78;;;2.78;;
47784;SDS011;35233;55.686;37.848;2023-05-10T12:02:20;4.20;;;2.88;;
47784;SDS011;35233;55.686;37.848;2023-05-10T12:04:45;2.75;;;2.42;;
47784;SDS011;35233;55.686;37.848;2023-05-10T12:07:11;3.60;;;2.60;;
47784;SDS011;35233;55.686;37.848;2023-05-10T12:09:37;3.80;;;3.00;;
47784;SDS011;35233;55.686;37.848;2023-05-10T12:12:27;3.47;;;2.70;;
47784;SDS011;35233;55.686;37.848;2023-05-10T12:14:59;3.72;;;2.90;;
47784;SDS011;35233;55.686;37.848;2023-05-10T12:17:28;3.63;;;2.60;;
47784;SDS011;35233;55.686;37.848;2023-05-10T12:19:54;4.35;;;2.83;;
47784;SDS011;35233;55.686;37.848;2023-05-10T12:22:24;4.13;;;3.00;;
47784;SDS011;35233;55.686;37.848;2023-05-10T12:24:50;3.95;;;2.80;;
47784;SDS011;35233;55.686;37.848;2023-05-10T12:27:15;3.67;;;2.67;;
47784;SDS011;35233;55.686;37.848;2023-05-10T12:29:41;4.20;;;3.03;;
47784;SDS011;35233;55.686;37.848;2023-05-10T12:32:09;3.58;;;2.70;;
47784;SDS011;35233;55.686;37.848;2023-05-10T12:34:35;3.97;;;2.47;;
47784;SDS011;35233;55.686;37.848;2023-05-10T12:37:03;3.83;;;2.47;;
47784;SDS011;35233;55.686;37.848;2023-05-10T12:42:24;3.45;;;2.63;;
47784;SDS011;35233;55.686;37.848;2023-05-10T12:44:54;3.80;;;2.58;;
47784;SDS011;35233;55.686;37.848;2023-05-10T12:47:21;4.38;;;2.70;;
47784;SDS011;35233;55.686;37.848;2023-05-10T12:49:46;3.88;;;2.67;;
47784;SDS011;35233;55.686;37.848;2023-05-10T12:52:11;4.18;;;2.67;;
47784;SDS011;35233;55.686;37.848;2023-05-10T12:54:37;3.40;;;2.50;;
47784;SDS011;35233;55.686;37.848;2023-05-10T12:57:02;3.45;;;2.67;;
47784;SDS011;35233;55.686;37.848;2023-05-10T12:59:28;4.03;;;2.70;;
47784;SDS011;35233;55.686;37.848;2023-05-10T13:01:53;3.10;;;2.40;;
47784;SDS011;35233;55.686;37.848;2023-05-10T13:04:19;3.20;;;2.65;;
47784;SDS011;35233;55.686;37.848;2023-05-10T13:06:45;3.35;;;2.70;;
47784;SDS011;35233;55.686;37.848;2023-05-10T13:09:10;4.35;;;2.60;;
47784;SDS011;35233;55.686;37.848;2023-05-10T13:11:36;3.75;;;2.90;;
47784;SDS011;35233;55.686;37.848;2023-05-10T13:14:02;2.95;;;2.40;;
47784;SDS011;35233;55.686;37.848;2023-05-10T13:16:28;3.40;;;2.60;;
47784;SDS011;35233;55.686;37.848;2023-05-10T13:18:53;3.05;;;2.33;;
47784;SDS011;35233;55.686;37.848;2023-05-10T13:21:19;2.97;;;2.38;;
47784;SDS011;35233;55.686;37.848;2023-05-10T13:23:45;3.55;;;2.50;;
47784;SDS011;35233;55.686;37.848;2023-05-10T13:26:11;3.20;;;2.53;;
47784;SDS011;35233;55.686;37.848;2023-05-10T13:28:37;3.70;;;2.58;;
47784;SDS011;35233;55.686;37.848;2023-05-10T13:31:03;2.50;;;2.20;;
47784;SDS011;35233;55.686;37.848;2023-05-10T13:33:30;3.22;;;2.42;;
47784;SDS011;35233;55.686;37.848;2023-05-10T13:35:55;3.63;;;2.80;;
47784;SDS011;35233;55.686;37.848;2023-05-10T13:38:21;3.33;;;2.65;;
47784;SDS011;35233;55.686;37.848;2023-05-10T13:40:46;3.38;;;2.53;;
47784;SDS011;35233;55.686;37.848;2023-05-10T13:43:12;2.92;;;2.40;;
47784;SDS011;35233;55.686;37.848;2023-05-10T13:45:37;3.05;;;2.42;;
47784;SDS011;35233;55.686;37.848;2023-05-10T13:48:03;3.38;;;2.40;;
47784;SDS011;35233;55.686;37.848;2023-05-10T13:50:29;3.42;;;2.67;;
47784;SDS011;35233;55.686;37.848;2023-05-10T13:52:55;3.83;;;2.53;;
47784;SDS011;35233;55.686;37.848;2023-05-10T13:55:20;3.80;;;2.70;;
47784;SDS011;35233;55.686;37.848;2023-05-10T13:57:46;3.15;;;2.58;;
47784;SDS011;35233;55.686;37.848;2023-05-10T14:00:12;3.78;;;2.63;;
47784;SDS011;35233;55.686;37.848;2023-05-10T14:02:37;3.22;;;2.63;;
47784;SDS011;35233;55.686;37.848;2023-05-10T14:05:03;4.28;;;2.80;;
47784;SDS011;35233;55.686;37.848;2023-05-10T14:07:29;3.60;;;2.78;;
47784;SDS011;35233;55.686;37.848;2023-05-10T14:09:56;4.13;;;2.60;;
47784;SDS011;35233;55.686;37.848;2023-05-10T14:12:21;4.72;;;2.70;;
47784;SDS011;35233;55.686;37.848;2023-05-10T14:14:47;3.45;;;2.80;;
47784;SDS011;35233;55.686;37.848;2023-05-10T14:17:12;3.22;;;2.47;;
47784;SDS011;35233;55.686;37.848;2023-05-10T14:19:38;3.97;;;2.78;;
47784;SDS011;35233;55.686;37.848;2023-05-10T14:22:03;3.97;;;3.08;;
47784;SDS011;35233;55.686;37.848;2023-05-10T14:24:29;4.10;;;2.88;;
47784;SDS011;35233;55.686;37.848;2023-05-10T14:26:54;3.75;;;2.72;;
47784;SDS011;35233;55.686;37.848;2023-05-10T14:29:20;3.80;;;2.90;;
47784;SDS011;35233;55.686;37.848;2023-05-10T14:31:46;4.53;;;2.97;;
47784;SDS011;35233;55.686;37.848;2023-05-10T14:34:11;4.25;;;3.20;;
47784;SDS011;35233;55.686;37.848;2023-05-10T14:36:37;3.78;;;2.88;;
47784;SDS011;35233;55.686;37.848;2023-05-10T14:39:02;4.57;;;3.22;;
47784;SDS011;35233;55.686;37.848;2023-05-10T14:41:28;4.38;;;3.13;;
47784;SDS011;35233;55.686;37.848;2023-05-10T14:43:55;4.68;;;3.22;;
47784;SDS011;35233;55.686;37.848;2023-05-10T14:46:21;4.63;;;3.05;;
47784;SDS011;35233;55.686;37.848;2023-05-10T14:48:46;4.85;;;3.20;;
47784;SDS011;35233;55.686;37.848;2023-05-10T14:51:12;3.90;;;3.05;;
47784;SDS011;35233;55.686;37.848;2023-05-10T14:53:37;4.63;;;3.20;;
47784;SDS011;35233;55.686;37.848;2023-05-10T14:56:03;4.80;;;3.20;;
47784;SDS011;35233;55.686;37.848;2023-05-10T14:58:29;4.35;;;3.00;;
47784;SDS011;35233;55.686;37.848;2023-05-10T15:00:55;4.60;;;2.90;;